Time;durP1;ratioP1;P1;durP2;ratioP2;P2;SDS_P1;SDS_P2;PMS_P1;PMS_P2;Temp;Humidity;BMP_temperature;BMP_pressure;BME280_temperature;BME280_humidity;BME280_pressure;Samples;Min_cycle;Max_cycle;Signal;HPM_P1;HPM_P2
2022/06/18 00:00:55;;;;;;;;;13.25;10.25;;;;;29.48;35.54;101667.59;5069079;28;45528;-63
2022/06/18 00:03:22;;;;;;;;;16.75;13.75;;;;;29.45;35.19;101661.69;5067928;28;45646;-61
2022/06/18 00:05:50;;;;;;;;;16.25;13.00;;;;;29.44;35.04;101660.03;5071238;28;46198;-61
2022/06/18 00:08:19;;;;;;;;;12.25;12.25;;;;;29.40;35.41;101656.88;5072087;28;45463;-62
2022/06/18 00:10:46;;;;;;;;;13.00;12.00;;;;;29.38;35.29;101658.06;5071556;28;45321;-63
2022/06/18 00:16:00;;;;;;;;;13.00;11.00;;;;;29.33;35.81;101650.53;5073598;28;45636;-62
2022/06/18 00:18:26;;;;;;;;;13.50;12.25;;;;;29.32;35.46;101642.56;5071846;28;46703;-63
2022/06/18 00:20:53;;;;;;;;;13.25;12.00;;;;;29.30;35.34;101645.47;5070676;28;45410;-62
2022/06/18 00:23:19;;;;;;;;;14.50;13.50;;;;;29.28;35.53;101644.81;5068399;28;45367;-65
2022/06/18 00:25:48;;;;;;;;;15.25;12.00;;;;;29.27;35.63;101642.31;5069990;28;45634;-68
2022/06/18 00:28:19;;;;;;;;;14.75;14.25;;;;;29.24;35.96;101640.81;5067832;28;45485;-61
2022/06/18 00:30:45;;;;;;;;;14.50;13.00;;;;;29.21;35.67;101638.47;5069510;28;45437;-59
2022/06/18 00:33:11;;;;;;;;;16.50;15.25;;;;;29.19;36.19;101643.25;5066926;27;45427;-62
2022/06/18 00:35:37;;;;;;;;;14.25;12.25;;;;;29.16;35.69;101639.06;5067570;28;45552;-62
2022/06/18 00:38:04;;;;;;;;;13.50;11.00;;;;;29.13;36.20;101644.84;5070335;28;45748;-62
2022/06/18 00:40:37;;;;;;;;;11.00;11.00;;;;;29.11;36.00;101641.50;5069699;28;45646;-62
2022/06/18 00:43:14;;;;;;;;;8.75;8.75;;;;;29.11;35.99;101648.81;5065310;28;45500;-62
2022/06/18 00:45:40;;;;;;;;;13.00;11.75;;;;;29.09;35.97;101648.16;5067854;28;45792;-61
2022/06/18 00:48:34;;;;;;;;;10.50;9.50;;;;;29.07;36.48;101644.78;5067936;28;45772;-62
2022/06/18 00:51:12;;;;;;;;;11.75;11.00;;;;;29.05;35.80;101644.13;5069563;28;45801;-62
2022/06/18 00:53:47;;;;;;;;;12.50;11.25;;;;;29.03;36.42;101636.19;5069363;28;45587;-62
2022/06/18 00:56:20;;;;;;;;;8.50;8.50;;;;;29.01;36.34;101649.09;5069088;28;45528;-61
2022/06/18 00:58:51;;;;;;;;;10.25;10.25;;;;;29.00;36.73;101643.88;5065395;28;45863;-61
2022/06/18 01:01:26;;;;;;;;;12.25;10.25;;;;;28.98;36.46;101644.03;5068364;28;45573;-61
2022/06/18 01:03:52;;;;;;;;;17.00;14.75;;;;;28.96;36.00;101647.97;5065748;28;45789;-62
2022/06/18 01:06:25;;;;;;;;;14.25;12.00;;;;;28.94;36.16;101644.63;5069802;28;45531;-62
2022/06/18 01:09:15;;;;;;;;;12.25;11.50;;;;;28.92;36.18;101647.53;5067134;28;45557;-62
2022/06/18 01:11:42;;;;;;;;;9.75;9.75;;;;;28.89;36.64;101646.00;5069382;28;45749;-61
2022/06/18 01:14:12;;;;;;;;;13.25;11.25;;;;;28.88;36.74;101651.59;5063709;28;45858;-62
2022/06/18 01:16:38;;;;;;;;;13.00;11.75;;;;;28.86;36.43;101640.13;5069762;28;45475;-63
2022/06/18 01:19:12;;;;;;;;;9.50;9.50;;;;;28.85;36.87;101646.56;5066396;28;45452;-63
2022/06/18 01:22:06;;;;;;;;;10.50;9.75;;;;;28.84;36.98;101644.91;5067185;28;45506;-63
2022/06/18 01:24:38;;;;;;;;;10.50;9.50;;;;;28.81;37.02;101643.38;5067752;28;45464;-63
2022/06/18 01:27:07;;;;;;;;;10.50;9.50;;;;;28.79;36.97;101631.06;5062954;28;45869;-63
2022/06/18 01:29:32;;;;;;;;;13.00;11.00;;;;;28.77;37.12;101639.38;5068194;27;45732;-63
2022/06/18 01:31:59;;;;;;;;;14.75;12.50;;;;;28.75;36.91;101643.28;5070235;28;45449;-62
2022/06/18 01:34:25;;;;;;;;;13.75;13.00;;;;;28.72;37.18;101640.97;5068430;28;45495;-62
2022/06/18 01:36:52;;;;;;;;;13.00;11.75;;;;;28.67;36.77;101630.66;5067588;28;46232;-62
2022/06/18 01:39:22;;;;;;;;;10.75;10.25;;;;;28.65;37.31;101644.41;5070126;28;45851;-63
2022/06/18 01:41:52;;;;;;;;;11.00;10.00;;;;;28.63;37.27;101632.94;5068626;28;45749;-63
2022/06/18 01:44:38;;;;;;;;;12.00;12.00;;;;;28.60;36.92;101622.47;5069943;28;46887;-62
2022/06/18 01:47:07;;;;;;;;;14.75;12.00;;;;;28.61;37.08;101623.31;5065588;28;45528;-62
2022/06/18 01:49:43;;;;;;;;;10.75;10.75;;;;;28.60;37.23;101622.47;5067198;28;45336;-62
2022/06/18 01:52:10;;;;;;;;;10.75;10.75;;;;;28.57;36.80;101620.13;5066867;28;45644;-63
2022/06/18 01:54:43;;;;;;;;;12.00;11.25;;;;;28.55;37.44;101621.34;5069976;28;45841;-64
2022/06/18 01:57:18;;;;;;;;;11.00;11.00;;;;;28.54;37.24;101617.78;5067769;28;46045;-62
2022/06/18 01:59:51;;;;;;;;;13.50;10.75;;;;;28.53;37.66;101609.84;5065103;28;45417;-64
2022/06/18 02:02:17;;;;;;;;;13.00;11.50;;;;;28.53;37.62;101612.56;5068323;28;45643;-63
2022/06/18 02:04:43;;;;;;;;;10.50;8.25;;;;;28.51;36.95;101617.31;5065076;28;45566;-62
2022/06/18 02:07:14;;;;;;;;;8.50;6.25;;;;;28.49;37.40;101611.25;5069874;28;46002;-64
2022/06/18 02:09:50;;;;;;;;;14.00;12.25;;;;;28.49;37.37;101611.25;5070349;28;45392;-63
2022/06/18 02:12:24;;;;;;;;;13.00;10.50;;;;;28.46;37.33;101609.75;5068228;28;45704;-65
2022/06/18 02:14:55;;;;;;;;;16.50;13.00;;;;;28.46;37.25;101619.75;5065815;28;45372;-62
2022/06/18 02:17:22;;;;;;;;;14.75;10.75;;;;;28.45;37.29;101607.25;5069441;28;46204;-64
2022/06/18 02:20:00;;;;;;;;;16.75;10.75;;;;;28.42;37.50;101607.59;5068673;28;45611;-63
2022/06/18 02:22:31;;;;;;;;;15.00;12.00;;;;;28.40;37.42;101605.06;5066119;28;45473;-63
2022/06/18 02:24:57;;;;;;;;;10.00;9.75;;;;;28.37;37.48;101605.47;5070904;28;45344;-63
2022/06/18 02:27:23;;;;;;;;;12.50;11.00;;;;;28.37;37.77;101602.75;5068047;28;45580;-63
2022/06/18 02:29:49;;;;;;;;;13.75;10.00;;;;;28.35;37.22;101600.22;5070137;28;45484;-63
2022/06/18 02:32:31;;;;;;;;;14.00;11.25;;;;;28.34;37.71;101611.25;5070693;28;45424;-64
2022/06/18 02:34:57;;;;;;;;;13.75;10.75;;;;;28.33;37.59;101604.13;5070203;28;45315;-63
2022/06/18 02:37:25;;;;;;;;;13.25;12.00;;;;;28.30;37.84;101596.41;5070427;28;45422;-63
2022/06/18 02:39:53;;;;;;;;;13.75;10.50;;;;;28.27;37.56;101592.13;5069438;28;45387;-63
2022/06/18 02:42:21;;;;;;;;;13.75;12.50;;;;;28.26;37.53;101584.19;5071328;28;45283;-63
2022/06/18 02:44:48;;;;;;;;;13.25;11.25;;;;;28.24;38.00;101586.25;5068212;28;45308;-63
2022/06/18 02:47:15;;;;;;;;;13.75;12.00;;;;;28.21;38.02;101576.66;5061108;28;45320;-63
2022/06/18 02:50:14;;;;;;;;;13.75;11.50;;;;;28.18;37.94;101570.75;5060995;28;45375;-63
2022/06/18 02:52:52;;;;;;;;;9.00;8.00;;;;;28.14;38.09;101573.00;5056741;28;45420;-63
2022/06/18 02:55:37;;;;;;;;;11.75;11.50;;;;;28.13;38.13;101562.34;5061223;28;45311;-63
2022/06/18 02:58:12;;;;;;;;;10.50;9.00;;;;;28.09;38.27;101554.59;5063298;28;45389;-63
2022/06/18 03:00:41;;;;;;;;;17.75;11.25;;;;;28.08;38.29;101561.03;5060936;28;45462;-63
2022/06/18 03:03:12;;;;;;;;;15.00;11.00;;;;;28.04;38.34;101551.59;5060524;28;45462;-63
2022/06/18 03:05:38;;;;;;;;;12.75;12.50;;;;;28.03;38.10;101552.59;5061159;28;45346;-63
2022/06/18 03:08:04;;;;;;;;;11.00;10.00;;;;;28.00;38.45;101544.88;5060847;28;45460;-63
2022/06/18 03:13:18;;;;;;;;;13.00;11.00;;;;;27.95;38.75;101543.72;5059773;28;45461;-63
2022/06/18 03:15:45;;;;;;;;;10.00;9.25;;;;;27.94;38.30;101531.22;5060705;28;45517;-63
2022/06/18 03:18:11;;;;;;;;;12.00;10.75;;;;;27.92;38.59;101526.00;5060567;28;46407;-63
2022/06/18 03:20:45;;;;;;;;;10.00;10.00;;;;;27.91;38.97;101523.47;5060389;28;45402;-63
2022/06/18 03:23:17;;;;;;;;;12.00;11.00;;;;;27.88;39.02;101524.66;5060803;28;45374;-63
2022/06/18 03:25:43;;;;;;;;;15.00;12.75;;;;;27.89;39.11;101520.13;5060601;28;45608;-63
2022/06/18 03:28:12;;;;;;;;;12.75;12.75;;;;;27.88;38.66;101524.66;5060948;28;45990;-63
2022/06/18 03:30:39;;;;;;;;;12.50;10.25;;;;;27.85;38.99;101514.22;5060518;28;45341;-63
2022/06/18 03:33:05;;;;;;;;;13.75;11.75;;;;;27.85;39.24;101518.78;5060411;28;45245;-63
2022/06/18 03:35:31;;;;;;;;;14.50;12.50;;;;;27.84;39.17;101509.00;5060709;28;45241;-63
2022/06/18 03:37:56;;;;;;;;;11.00;10.25;;;;;27.81;38.80;101516.47;5060557;28;46511;-63
2022/06/18 03:40:22;;;;;;;;;16.00;13.25;;;;;27.78;39.00;101514.13;5060169;28;45316;-63
2022/06/18 03:42:48;;;;;;;;;13.50;11.00;;;;;27.75;39.09;101514.50;5061631;28;45220;-63
2022/06/18 03:45:13;;;;;;;;;12.50;10.75;;;;;27.72;39.19;101511.28;5062772;28;45442;-63
2022/06/18 03:47:39;;;;;;;;;15.25;12.00;;;;;27.70;39.32;101514.19;5062370;28;47066;-63
2022/06/18 03:50:05;;;;;;;;;14.00;12.00;;;;;27.68;39.55;101510.84;5063833;28;45356;-63
2022/06/18 03:52:31;;;;;;;;;10.50;10.50;;;;;27.66;39.34;101512.88;5064147;28;45292;-63
2022/06/18 03:54:56;;;;;;;;;11.00;11.00;;;;;27.64;39.56;101508.63;5063790;28;45333;-63
2022/06/18 03:57:22;;;;;;;;;12.25;12.00;;;;;27.63;39.67;101513.22;5066792;28;45303;-63
2022/06/18 03:59:47;;;;;;;;;11.25;10.75;;;;;27.61;39.57;101517.97;5063640;28;45264;-63
2022/06/18 04:02:13;;;;;;;;;15.50;11.50;;;;;27.60;39.43;101513.59;5063485;28;45335;-63
2022/06/18 04:04:39;;;;;;;;;12.75;11.75;;;;;27.61;39.51;101519.84;5063887;28;45304;-63
2022/06/18 04:07:05;;;;;;;;;13.25;12.25;;;;;27.58;39.66;101512.94;5063667;28;45309;-63
2022/06/18 04:09:31;;;;;;;;;13.00;10.00;;;;;27.59;39.83;101516.50;5063311;28;45244;-63
2022/06/18 04:11:58;;;;;;;;;14.00;12.50;;;;;27.56;39.82;101504.16;5063627;28;45213;-63
2022/06/18 04:14:24;;;;;;;;;19.75;12.25;;;;;27.56;39.93;101509.56;5063637;28;45176;-63
2022/06/18 04:16:49;;;;;;;;;11.75;11.75;;;;;27.54;39.88;101504.34;5061959;28;46179;-63
2022/06/18 04:19:15;;;;;;;;;13.00;12.00;;;;;27.55;40.00;101502.47;5063376;28;45232;-63
2022/06/18 04:21:41;;;;;;;;;15.00;11.00;;;;;27.54;39.89;101507.03;5063505;28;45395;-63
2022/06/18 04:24:06;;;;;;;;;12.50;11.25;;;;;27.53;40.14;101502.66;5063579;28;45391;-63
2022/06/18 04:26:32;;;;;;;;;11.75;11.75;;;;;27.54;40.38;101503.50;5063218;28;45375;-63
2022/06/18 04:28:57;;;;;;;;;13.75;11.50;;;;;27.54;40.15;101503.50;5063360;28;45349;-63
2022/06/18 04:31:23;;;;;;;;;12.50;11.00;;;;;27.54;40.23;101493.50;5063618;28;45261;-63
2022/06/18 04:33:48;;;;;;;;;10.75;10.75;;;;;27.55;40.24;101495.19;5063185;28;45456;-63
2022/06/18 04:36:37;;;;;;;;;10.00;10.00;;;;;27.55;40.45;101491.63;5063452;28;45921;-63
2022/06/18 04:39:03;;;;;;;;;12.75;11.25;;;;;27.52;40.22;101492.84;5062979;28;45379;-63
2022/06/18 04:41:28;;;;;;;;;10.50;10.00;;;;;27.51;40.35;101499.31;5063192;28;45310;-63
2022/06/18 04:43:55;;;;;;;;;11.25;11.00;;;;;27.52;39.96;101500.97;5062968;28;45150;-63
2022/06/18 04:46:20;;;;;;;;;8.25;8.25;;;;;27.53;40.24;101499.13;5062960;28;45464;-63
2022/06/18 04:48:46;;;;;;;;;11.00;10.00;;;;;27.54;40.32;101512.44;5062474;28;45312;-63
2022/06/18 04:51:11;;;;;;;;;10.75;9.00;;;;;27.57;40.33;101513.97;5063058;28;45303;-63
2022/06/18 04:53:37;;;;;;;;;13.75;12.75;;;;;27.58;40.24;101510.25;5062909;28;46298;-63
2022/06/18 04:56:02;;;;;;;;;12.25;10.25;;;;;27.60;40.49;101521.72;5064266;28;45426;-63
2022/06/18 04:58:28;;;;;;;;;10.50;10.50;;;;;27.62;40.43;101518.81;5063736;28;45315;-63
2022/06/18 05:00:54;;;;;;;;;11.25;10.75;;;;;27.63;40.39;101509.66;5063080;28;45410;-63
2022/06/18 05:03:21;;;;;;;;;11.25;11.00;;;;;27.62;40.64;101508.84;5062443;28;45529;-63
2022/06/18 05:05:47;;;;;;;;;10.00;9.75;;;;;27.62;40.80;101508.00;5062764;28;45334;-63
2022/06/18 05:08:12;;;;;;;;;14.00;12.00;;;;;27.63;40.65;101510.50;5062727;28;45532;-63
2022/06/18 05:10:38;;;;;;;;;13.25;12.75;;;;;27.63;40.64;101504.25;5062644;28;45300;-63
2022/06/18 05:13:06;;;;;;;;;12.75;12.75;;;;;27.61;40.59;101509.03;5062811;28;45455;-63
2022/06/18 05:15:32;;;;;;;;;12.50;11.75;;;;;27.60;40.74;101497.34;5062613;28;45507;-63
2022/06/18 05:17:58;;;;;;;;;15.25;13.75;;;;;27.58;40.87;101493.16;5062196;28;45327;-63
2022/06/18 05:20:24;;;;;;;;;14.00;10.50;;;;;27.57;40.94;101492.31;5062493;28;45425;-63
2022/06/18 05:22:50;;;;;;;;;12.75;12.50;;;;;27.57;41.02;101496.88;5062593;28;45245;-63
2022/06/18 05:25:17;;;;;;;;;13.50;11.00;;;;;27.56;41.14;101496.03;5062307;28;45985;-63
2022/06/18 05:27:45;;;;;;;;;12.75;11.25;;;;;27.58;41.39;101490.44;5062327;28;45242;-63
2022/06/18 05:30:14;;;;;;;;;15.00;13.00;;;;;27.63;41.29;101494.25;5062438;28;45351;-63
2022/06/18 05:32:39;;;;;;;;;13.25;11.75;;;;;27.65;41.16;101481.41;5065998;28;45614;-63
2022/06/18 05:35:06;;;;;;;;;13.75;11.25;;;;;27.71;41.26;101480.69;5055350;28;46150;-64
2022/06/18 05:37:33;;;;;;;;;11.00;10.00;;;;;27.75;40.97;101479.28;5049227;28;45233;-63
2022/06/18 05:39:58;;;;;;;;;15.25;10.25;;;;;27.79;41.42;101480.59;5061648;28;45269;-63
2022/06/18 05:42:24;;;;;;;;;11.25;10.75;;;;;27.86;41.40;101469.88;5060600;28;45399;-63
2022/06/18 05:44:50;;;;;;;;;10.75;10.75;;;;;27.91;40.78;101480.16;5058817;28;46083;-64
2022/06/18 05:47:20;;;;;;;;;11.50;10.50;;;;;27.94;40.91;101477.06;5060318;28;45371;-64
2022/06/18 05:49:45;;;;;;;;;9.75;8.50;;;;;27.98;40.66;101478.38;5060643;28;45244;-64
2022/06/18 05:52:11;;;;;;;;;10.00;10.00;;;;;28.01;41.03;101472.56;5057906;28;45226;-64
2022/06/18 05:54:37;;;;;;;;;10.25;10.25;;;;;28.09;41.20;101484.16;5060747;28;45403;-64
2022/06/18 05:57:03;;;;;;;;;10.00;10.00;;;;;28.16;40.76;101469.84;5061351;28;45332;-64
2022/06/18 05:59:29;;;;;;;;;14.00;12.00;;;;;28.19;40.91;101461.34;5060765;28;45330;-68
2022/06/18 06:01:56;;;;;;;;;13.50;11.75;;;;;28.23;40.66;101460.78;5061512;28;45502;-68
2022/06/18 06:04:26;;;;;;;;;11.25;11.25;;;;;28.30;40.29;101458.19;5061161;28;46234;-68
2022/06/18 06:06:52;;;;;;;;;10.50;10.00;;;;;28.33;40.08;101466.78;5060489;28;45334;-68
2022/06/18 06:12:11;;;;;;;;;13.00;10.75;;;;;28.43;40.30;101461.03;5061515;28;45237;-68
2022/06/18 06:14:39;;;;;;;;;10.75;10.25;;;;;28.50;40.02;101461.13;5061256;28;45266;-67
2022/06/18 06:17:10;;;;;;;;;10.50;10.50;;;;;28.54;40.62;101457.84;5061363;28;45377;-67
2022/06/18 06:19:36;;;;;;;;;11.75;9.25;;;;;28.58;40.25;101453.72;5060806;28;45287;-68
2022/06/18 06:22:02;;;;;;;;;12.25;11.00;;;;;28.62;39.89;101451.47;5061647;28;45228;-68
2022/06/18 06:24:28;;;;;;;;;9.00;8.75;;;;;28.69;40.29;101456.97;5061036;28;45422;-67
2022/06/18 06:26:53;;;;;;;;;9.00;9.00;;;;;28.74;39.74;101454.50;5061413;28;45255;-68
2022/06/18 06:29:19;;;;;;;;;12.50;12.00;;;;;28.77;39.85;101452.28;5060958;28;45200;-68
2022/06/18 06:31:44;;;;;;;;;13.00;12.75;;;;;28.84;40.22;101457.75;5061386;28;45303;-68
2022/06/18 06:34:10;;;;;;;;;12.00;10.25;;;;;28.88;39.70;101454.44;5059563;28;45424;-67
2022/06/18 06:36:35;;;;;;;;;12.00;9.50;;;;;28.95;39.59;101456.44;5050280;28;45384;-67
2022/06/18 06:39:01;;;;;;;;;13.75;10.00;;;;;28.98;39.42;101451.44;5061310;28;45339;-68
2022/06/18 06:41:29;;;;;;;;;13.75;10.00;;;;;28.98;39.39;101450.59;5067436;28;45737;-68
2022/06/18 06:43:55;;;;;;;;;14.00;12.00;;;;;29.02;39.69;101449.19;5065955;28;46452;-67
2022/06/18 06:46:20;;;;;;;;;13.00;11.50;;;;;29.09;39.03;101452.81;5066649;28;45240;-67
2022/06/18 06:48:46;;;;;;;;;10.50;10.25;;;;;29.15;38.97;101454.72;5069056;28;45211;-67
2022/06/18 06:51:15;;;;;;;;;14.75;13.00;;;;;29.23;38.90;101459.16;5072201;28;45347;-67
2022/06/18 06:53:41;;;;;;;;;15.50;11.25;;;;;29.33;38.89;101475.97;5067324;28;46209;-67
2022/06/18 06:58:55;;;;;;;;;16.00;11.75;;;;;29.41;38.66;101473.94;5065189;28;45346;-67
2022/06/18 07:01:21;;;;;;;;;11.25;10.50;;;;;29.44;38.60;101470.00;5062147;28;45731;-67
2022/06/18 07:03:47;;;;;;;;;12.00;12.00;;;;;29.46;38.86;101467.91;5068902;27;46124;-67
2022/06/18 07:06:13;;;;;;;;;8.00;8.00;;;;;29.46;39.07;101467.91;5066461;28;45225;-67
2022/06/18 07:08:39;;;;;;;;;9.50;9.50;;;;;29.47;38.58;101464.19;5062140;28;45161;-67
2022/06/18 07:11:05;;;;;;;;;11.25;9.75;;;;;29.51;38.79;101470.91;5065448;28;45336;-67
2022/06/18 07:13:31;;;;;;;;;11.00;11.00;;;;;29.58;38.91;101463.66;5063744;28;45298;-67
2022/06/18 07:15:57;;;;;;;;;11.50;11.50;;;;;29.65;38.49;101461.00;5063964;28;45302;-67
2022/06/18 07:18:31;;;;;;;;;12.00;11.50;;;;;29.71;38.57;101461.03;5069742;28;45500;-67
2022/06/18 07:20:57;;;;;;;;;12.50;9.75;;;;;29.71;38.82;101455.63;5074074;28;45553;-67
2022/06/18 07:23:23;;;;;;;;;12.00;10.75;;;;;29.77;38.21;101458.56;5070367;28;46199;-67
2022/06/18 07:25:49;;;;;;;;;15.50;12.75;;;;;29.82;38.13;101456.91;5074533;28;45432;-67
2022/06/18 07:28:15;;;;;;;;;9.00;8.25;;;;;29.85;37.74;101451.06;5076049;28;45442;-69
2022/06/18 07:30:41;;;;;;;;;10.50;10.50;;;;;29.86;38.39;101446.47;5074814;28;46431;-69
2022/06/18 07:33:13;;;;;;;;;11.00;10.00;;;;;29.90;38.12;101451.31;5072730;28;45982;-69
2022/06/18 07:35:38;;;;;;;;;13.00;12.50;;;;;29.94;38.33;101457.19;5056528;28;45522;-70
2022/06/18 07:38:04;;;;;;;;;13.00;11.25;;;;;29.97;37.85;101451.38;5066617;28;45389;-68
2022/06/18 07:40:42;;;;;;;;;11.50;11.00;;;;;30.02;38.38;101451.63;5067352;28;45267;-69
2022/06/18 07:43:08;;;;;;;;;12.25;11.00;;;;;30.01;37.97;101450.75;5066015;28;46595;-69
2022/06/18 07:45:34;;;;;;;;;10.00;9.75;;;;;30.05;37.96;101445.75;5075414;28;45316;-71
2022/06/18 07:48:00;;;;;;;;;13.00;13.00;;;;;30.09;37.28;101449.78;5073211;28;45449;-69
2022/06/18 07:50:25;;;;;;;;;13.25;11.75;;;;;30.12;37.36;101437.69;5067153;28;45458;-69
2022/06/18 07:52:51;;;;;;;;;12.25;10.50;;;;;30.16;37.92;101437.06;5066905;28;45372;-66
2022/06/18 07:55:20;;;;;;;;;10.50;10.00;;;;;30.21;37.84;101442.72;5066729;28;45378;-65
2022/06/18 07:57:46;;;;;;;;;14.00;12.50;;;;;30.28;37.38;101440.03;5066688;28;45363;-65
2022/06/18 08:00:18;;;;;;;;;12.00;12.00;;;;;30.33;37.40;101429.38;5066504;28;45277;-64
2022/06/18 08:02:46;;;;;;;;;11.25;11.25;;;;;30.41;37.98;101428.34;5065820;28;45369;-65
2022/06/18 08:05:13;;;;;;;;;12.00;12.00;;;;;30.48;37.63;101423.78;5066605;28;45188;-65
2022/06/18 08:07:39;;;;;;;;;13.75;12.50;;;;;30.53;37.27;101422.13;5066786;28;45170;-65
2022/06/18 08:10:06;;;;;;;;;11.75;10.75;;;;;30.56;37.05;101420.88;5066793;28;45325;-65
2022/06/18 08:12:33;;;;;;;;;12.75;11.00;;;;;30.61;37.03;101420.25;5066626;28;45389;-65
2022/06/18 08:14:59;;;;;;;;;14.50;12.25;;;;;30.67;37.28;101411.31;5065138;28;45406;-65
2022/06/18 08:17:27;;;;;;;;;12.25;12.25;;;;;30.71;36.94;101412.56;5065703;28;45624;-65
2022/06/18 08:19:53;;;;;;;;;11.25;9.50;;;;;30.74;37.05;101409.44;5066856;28;45146;-65
2022/06/18 08:22:21;;;;;;;;;11.50;11.50;;;;;30.75;37.04;101406.50;5066663;28;45232;-65
2022/06/18 08:24:47;;;;;;;;;14.50;11.75;;;;;30.78;36.60;101399.81;5066324;28;45476;-65
2022/06/18 08:27:14;;;;;;;;;13.50;13.25;;;;;30.82;37.02;101409.25;5065447;28;45403;-65
2022/06/18 08:29:40;;;;;;;;;12.25;12.25;;;;;30.88;37.12;101400.22;5063848;28;45439;-64
2022/06/18 08:32:06;;;;;;;;;18.00;13.75;;;;;30.96;36.70;101397.28;5062739;28;45403;-64
2022/06/18 08:34:32;;;;;;;;;14.25;11.50;;;;;31.03;36.33;101402.75;5062864;28;45316;-65
2022/06/18 08:36:59;;;;;;;;;14.50;12.00;;;;;31.08;36.32;101392.06;5063122;28;45157;-65
2022/06/18 08:39:25;;;;;;;;;11.50;10.50;;;;;31.14;36.39;101393.97;5070699;27;45494;-65
2022/06/18 08:41:59;;;;;;;;;14.00;12.25;;;;;31.22;36.46;101393.78;5062935;28;45551;-65
2022/06/18 08:45:06;;;;;;;;;13.50;12.00;;;;;31.31;36.22;101380.78;5059140;28;45397;-65
2022/06/18 08:47:50;;;;;;;;;10.75;10.75;;;;;31.36;35.98;101384.53;5061986;28;45380;-65
2022/06/18 08:50:21;;;;;;;;;12.00;11.00;;;;;31.43;36.20;101375.50;5063081;28;45339;-65
2022/06/18 08:53:15;;;;;;;;;14.00;12.00;;;;;31.51;36.04;101373.38;5063325;28;45270;-64
2022/06/18 08:56:04;;;;;;;;;17.00;13.75;;;;;31.57;36.02;101360.81;5062871;28;45434;-64
2022/06/18 08:58:51;;;;;;;;;13.25;11.75;;;;;31.64;36.13;101367.06;5062755;28;45359;-64
2022/06/18 09:01:39;;;;;;;;;16.50;16.50;;;;;31.71;35.87;101357.00;5062931;28;45571;-64
2022/06/18 09:04:08;;;;;;;;;13.50;12.50;;;;;31.77;35.82;101350.72;5062656;28;46352;-64
2022/06/18 09:06:51;;;;;;;;;13.00;12.50;;;;;31.83;35.95;101351.72;5062821;28;45344;-64
2022/06/18 09:09:44;;;;;;;;;18.00;16.25;;;;;31.86;35.76;101349.41;5062905;28;45252;-65
2022/06/18 09:12:17;;;;;;;;;15.25;13.00;;;;;31.93;35.48;101346.66;5062680;28;45258;-64
2022/06/18 09:14:50;;;;;;;;;12.75;12.00;;;;;31.99;35.44;101350.41;5061961;28;46323;-65
2022/06/18 09:17:25;;;;;;;;;16.00;15.25;;;;;32.05;35.25;101342.19;5061992;28;45411;-64
2022/06/18 09:19:58;;;;;;;;;14.50;14.50;;;;;32.11;35.27;101344.06;5061523;28;45398;-64
2022/06/18 09:22:26;;;;;;;;;16.50;13.75;;;;;32.19;34.90;101343.78;5062291;28;45299;-64
2022/06/18 09:24:58;;;;;;;;;15.00;13.50;;;;;32.27;35.06;101339.13;5062509;28;46185;-64
2022/06/18 09:27:27;;;;;;;;;13.75;12.00;;;;;32.32;34.93;101334.75;5061132;28;45322;-64
2022/06/18 09:30:02;;;;;;;;;14.50;10.75;;;;;32.36;34.39;101337.84;5062462;28;45441;-64
2022/06/18 09:33:00;;;;;;;;;12.75;12.75;;;;;32.44;34.78;101330.22;5062185;28;45339;-64
2022/06/18 09:35:31;;;;;;;;;15.75;15.50;;;;;32.50;34.53;101332.09;5060560;28;45367;-65
2022/06/18 09:38:32;;;;;;;;;14.50;12.25;;;;;32.56;34.37;101324.91;5062148;28;45260;-64
2022/06/18 09:41:03;;;;;;;;;13.00;10.00;;;;;32.64;33.87;101310.16;5049828;28;45292;-64
2022/06/18 09:43:50;;;;;;;;;10.25;8.25;;;;;32.70;33.57;101318.25;5061029;28;45530;-64
2022/06/18 09:46:25;;;;;;;;;10.25;9.25;;;;;32.75;33.93;101312.16;5062097;28;45366;-63
2022/06/18 09:48:50;;;;;;;;;12.00;10.75;;;;;32.81;33.77;101308.53;5062197;28;45504;-64
2022/06/18 09:51:28;;;;;;;;;8.00;8.00;;;;;32.89;33.13;101304.72;5062244;28;45384;-63
2022/06/18 09:54:00;;;;;;;;;8.25;8.00;;;;;32.96;33.13;101297.31;5062368;28;45543;-63
2022/06/18 09:56:33;;;;;;;;;10.00;9.50;;;;;33.03;32.63;101300.81;5061643;28;46280;-63
2022/06/18 09:59:23;;;;;;;;;11.50;10.00;;;;;33.12;33.10;101291.25;5061816;28;45256;-63
2022/06/18 10:01:55;;;;;;;;;20.00;18.75;;;;;33.20;32.26;101277.31;5061692;28;45246;-63
2022/06/18 10:07:24;;;;;;;;;9.25;8.00;;;;;33.37;32.05;101273.97;5061925;28;45859;-64
2022/06/18 10:10:13;;;;;;;;;8.00;8.00;;;;;33.43;32.17;101278.53;5061364;28;45253;-64
2022/06/18 10:12:45;;;;;;;;;6.25;6.25;;;;;33.44;32.18;101272.00;5061477;28;45291;-63
2022/06/18 10:15:15;;;;;;;;;6.75;6.50;;;;;33.45;31.54;101279.13;5061948;28;45296;-63
2022/06/18 10:18:17;;;;;;;;;9.25;7.00;;;;;33.46;31.53;101278.91;5061617;28;45366;-63
2022/06/18 10:20:55;;;;;;;;;10.50;7.75;;;;;33.54;31.18;101267.66;5061684;28;45261;-63
2022/06/18 10:23:39;;;;;;;;;6.75;6.75;;;;;33.66;31.08;101267.72;5061632;28;45415;-63
2022/06/18 10:26:12;;;;;;;;;9.75;7.00;;;;;33.77;30.27;101264.22;5061705;28;45165;-63
2022/06/18 10:29:25;;;;;;;;;8.50;8.00;;;;;33.90;30.19;101262.41;5061416;28;45275;-63
2022/06/18 10:32:39;;;;;;;;;11.25;9.25;;;;;33.93;30.64;101254.56;5038725;28;46099;-64
2022/06/18 10:35:12;;;;;;;;;9.25;9.25;;;;;33.96;30.06;101251.34;5040979;28;45287;-63
2022/06/18 10:38:02;;;;;;;;;8.50;8.50;;;;;34.04;29.92;101250.16;5052238;28;45497;-63
2022/06/18 10:41:01;;;;;;;;;9.00;8.00;;;;;34.18;30.37;101239.88;5061201;28;45267;-63
2022/06/18 10:43:49;;;;;;;;;8.75;8.00;;;;;34.27;29.71;101242.03;5061146;28;45248;-63
2022/06/18 10:46:18;;;;;;;;;9.25;9.25;;;;;34.33;29.90;101241.09;5061355;28;45434;-63
2022/06/18 10:48:48;;;;;;;;;12.50;10.75;;;;;34.37;29.72;101236.81;5061075;28;45467;-63
2022/06/18 10:51:17;;;;;;;;;7.00;7.00;;;;;34.42;29.87;101226.00;5061246;28;45414;-63
2022/06/18 10:54:06;;;;;;;;;8.75;8.25;;;;;34.49;29.63;101228.63;5060736;28;45283;-64
2022/06/18 10:56:43;;;;;;;;;12.00;10.25;;;;;34.49;30.00;101220.44;5061246;28;45325;-63
2022/06/18 10:59:09;;;;;;;;;9.75;7.00;;;;;34.46;28.88;101212.72;5061030;28;45251;-64
2022/06/18 11:01:39;;;;;;;;;7.00;7.00;;;;;34.45;29.03;101224.72;5060912;28;45405;-63
2022/06/18 11:04:26;;;;;;;;;10.75;9.75;;;;;34.44;29.04;101209.34;5060956;28;45504;-63
2022/06/18 11:07:03;;;;;;;;;10.00;9.25;;;;;34.48;28.89;101209.72;5061008;28;45338;-63
2022/06/18 11:09:36;;;;;;;;;8.25;7.75;;;;;34.57;28.71;101203.66;5060821;28;45600;-63
2022/06/18 11:12:19;;;;;;;;;10.00;8.50;;;;;34.68;28.46;101197.34;5060874;28;46135;-64
2022/06/18 11:14:45;;;;;;;;;11.00;9.00;;;;;34.78;28.70;101195.91;5060854;28;45310;-63
2022/06/18 11:17:41;;;;;;;;;10.25;8.00;;;;;34.83;28.90;101196.84;5060428;28;45358;-63
2022/06/18 11:20:29;;;;;;;;;10.50;8.75;;;;;34.85;28.79;101191.97;5059664;28;45265;-63
2022/06/18 11:23:02;;;;;;;;;11.00;10.50;;;;;34.91;28.43;101180.06;5060566;28;45391;-63
2022/06/18 11:25:44;;;;;;;;;10.25;10.00;;;;;34.92;28.66;101181.75;5060580;28;45536;-63
2022/06/18 11:28:21;;;;;;;;;11.00;8.75;;;;;34.92;28.24;101176.28;5060784;28;45359;-63
2022/06/18 11:30:49;;;;;;;;;10.25;10.25;;;;;34.95;28.24;101174.97;5060954;28;45409;-63
2022/06/18 11:33:28;;;;;;;;;11.75;9.50;;;;;35.03;28.51;101173.75;5060264;28;45431;-63
2022/06/18 11:35:54;;;;;;;;;13.50;9.25;;;;;35.09;28.19;101168.16;5061997;28;45410;-63
2022/06/18 11:38:29;;;;;;;;;7.50;6.00;;;;;35.17;28.02;101158.72;5060153;28;45224;-63
2022/06/18 11:40:59;;;;;;;;;10.25;8.75;;;;;35.18;28.28;101152.97;5060497;28;45434;-63
2022/06/18 11:43:45;;;;;;;;;11.50;7.50;;;;;35.24;27.95;101153.94;5059994;28;45281;-63